sensor_id;sensor_type;location;lat;lon;timestamp;P1;durP1;ratioP1;P2;durP2;ratioP2
3726;SDS011;1879;45.876;12.300;2022-07-21T00:01:58;6.47;;;4.13;;
3726;SDS011;1879;45.876;12.300;2022-07-21T00:04:25;5.80;;;4.83;;
3726;SDS011;1879;45.876;12.300;2022-07-21T00:06:52;5.00;;;4.50;;
3726;SDS011;1879;45.876;12.300;2022-07-21T00:09:22;5.43;;;4.17;;
3726;SDS011;1879;45.876;12.300;2022-07-21T00:11:49;6.07;;;4.73;;
3726;SDS011;1879;45.876;12.300;2022-07-21T00:14:16;5.30;;;4.77;;
3726;SDS011;1879;45.876;12.300;2022-07-21T00:16:43;6.20;;;5.03;;
3726;SDS011;1879;45.876;12.300;2022-07-21T00:19:10;5.20;;;4.70;;
3726;SDS011;1879;45.876;12.300;2022-07-21T00:21:38;5.90;;;4.70;;
3726;SDS011;1879;45.876;12.300;2022-07-21T00:24:05;5.30;;;4.80;;
3726;SDS011;1879;45.876;12.300;2022-07-21T00:26:33;8.37;;;4.40;;
3726;SDS011;1879;45.876;12.300;2022-07-21T00:29:00;7.83;;;4.80;;
3726;SDS011;1879;45.876;12.300;2022-07-21T00:31:28;5.40;;;4.40;;
3726;SDS011;1879;45.876;12.300;2022-07-21T00:33:55;5.07;;;4.57;;
3726;SDS011;1879;45.876;12.300;2022-07-21T00:36:22;4.93;;;4.50;;
3726;SDS011;1879;45.876;12.300;2022-07-21T00:38:49;5.07;;;4.57;;
3726;SDS011;1879;45.876;12.300;2022-07-21T00:41:16;5.10;;;4.67;;
3726;SDS011;1879;45.876;12.300;2022-07-21T00:43:45;5.93;;;5.40;;
3726;SDS011;1879;45.876;12.300;2022-07-21T00:46:12;7.37;;;5.00;;
3726;SDS011;1879;45.876;12.300;2022-07-21T00:48:39;4.67;;;4.27;;
3726;SDS011;1879;45.876;12.300;2022-07-21T00:51:07;5.77;;;5.03;;
3726;SDS011;1879;45.876;12.300;2022-07-21T00:53:34;5.73;;;5.27;;
3726;SDS011;1879;45.876;12.300;2022-07-21T00:56:01;6.70;;;5.83;;
3726;SDS011;1879;45.876;12.300;2022-07-21T00:58:28;7.57;;;5.07;;
3726;SDS011;1879;45.876;12.300;2022-07-21T01:00:57;5.60;;;5.07;;
3726;SDS011;1879;45.876;12.300;2022-07-21T01:03:24;5.90;;;5.30;;
3726;SDS011;1879;45.876;12.300;2022-07-21T01:05:51;10.03;;;5.43;;
3726;SDS011;1879;45.876;12.300;2022-07-21T01:08:18;9.40;;;5.10;;
3726;SDS011;1879;45.876;12.300;2022-07-21T01:10:45;5.90;;;4.80;;
3726;SDS011;1879;45.876;12.300;2022-07-21T01:13:12;6.03;;;5.43;;
3726;SDS011;1879;45.876;12.300;2022-07-21T01:15:39;5.30;;;4.80;;
3726;SDS011;1879;45.876;12.300;2022-07-21T01:18:08;10.00;;;6.00;;
3726;SDS011;1879;45.876;12.300;2022-07-21T01:20:35;6.10;;;5.53;;
3726;SDS011;1879;45.876;12.300;2022-07-21T01:23:09;6.80;;;5.50;;
3726;SDS011;1879;45.876;12.300;2022-07-21T01:25:36;7.13;;;5.47;;
3726;SDS011;1879;45.876;12.300;2022-07-21T01:28:03;5.80;;;4.70;;
3726;SDS011;1879;45.876;12.300;2022-07-21T01:30:30;8.63;;;5.40;;
3726;SDS011;1879;45.876;12.300;2022-07-21T01:32:57;5.40;;;5.00;;
3726;SDS011;1879;45.876;12.300;2022-07-21T01:35:24;6.40;;;5.50;;
3726;SDS011;1879;45.876;12.300;2022-07-21T01:37:51;9.10;;;5.30;;
3726;SDS011;1879;45.876;12.300;2022-07-21T01:40:20;7.83;;;5.70;;
3726;SDS011;1879;45.876;12.300;2022-07-21T01:43:04;6.63;;;5.23;;
3726;SDS011;1879;45.876;12.300;2022-07-21T01:45:31;6.63;;;5.90;;
3726;SDS011;1879;45.876;12.300;2022-07-21T01:48:01;6.60;;;6.00;;
3726;SDS011;1879;45.876;12.300;2022-07-21T01:50:28;5.30;;;4.80;;
3726;SDS011;1879;45.876;12.300;2022-07-21T01:52:55;4.70;;;4.30;;
3726;SDS011;1879;45.876;12.300;2022-07-21T01:55:25;6.17;;;5.13;;
3726;SDS011;1879;45.876;12.300;2022-07-21T01:57:53;6.70;;;4.47;;
3726;SDS011;1879;45.876;12.300;2022-07-21T02:00:20;4.97;;;4.57;;
3726;SDS011;1879;45.876;12.300;2022-07-21T02:02:47;4.80;;;4.30;;
3726;SDS011;1879;45.876;12.300;2022-07-21T02:05:14;6.47;;;5.00;;
3726;SDS011;1879;45.876;12.300;2022-07-21T02:07:41;7.83;;;5.73;;
3726;SDS011;1879;45.876;12.300;2022-07-21T02:10:08;5.37;;;4.87;;
3726;SDS011;1879;45.876;12.300;2022-07-21T02:12:37;5.90;;;5.27;;
3726;SDS011;1879;45.876;12.300;2022-07-21T02:15:05;5.87;;;5.27;;
3726;SDS011;1879;45.876;12.300;2022-07-21T02:17:33;6.27;;;5.27;;
3726;SDS011;1879;45.876;12.300;2022-07-21T02:20:00;6.33;;;5.50;;
3726;SDS011;1879;45.876;12.300;2022-07-21T02:22:27;5.97;;;5.40;;
3726;SDS011;1879;45.876;12.300;2022-07-21T02:24:54;5.57;;;4.87;;
3726;SDS011;1879;45.876;12.300;2022-07-21T02:27:21;7.17;;;5.57;;
3726;SDS011;1879;45.876;12.300;2022-07-21T02:29:49;9.70;;;5.27;;
3726;SDS011;1879;45.876;12.300;2022-07-21T02:32:16;10.87;;;5.70;;
3726;SDS011;1879;45.876;12.300;2022-07-21T02:34:43;6.07;;;5.47;;
3726;SDS011;1879;45.876;12.300;2022-07-21T02:37:10;6.77;;;5.40;;
3726;SDS011;1879;45.876;12.300;2022-07-21T02:39:37;7.27;;;5.07;;
3726;SDS011;1879;45.876;12.300;2022-07-21T02:42:04;5.20;;;4.70;;
3726;SDS011;1879;45.876;12.300;2022-07-21T02:44:32;6.20;;;5.60;;
3726;SDS011;1879;45.876;12.300;2022-07-21T02:47:00;5.90;;;5.40;;
3726;SDS011;1879;45.876;12.300;2022-07-21T02:49:27;7.27;;;5.47;;
3726;SDS011;1879;45.876;12.300;2022-07-21T02:51:54;5.40;;;4.90;;
3726;SDS011;1879;45.876;12.300;2022-07-21T02:54:21;9.30;;;5.67;;
3726;SDS011;1879;45.876;12.300;2022-07-21T02:56:48;8.70;;;5.30;;
3726;SDS011;1879;45.876;12.300;2022-07-21T02:59:15;5.73;;;5.23;;
3726;SDS011;1879;45.876;12.300;2022-07-21T03:01:42;5.60;;;4.80;;
3726;SDS011;1879;45.876;12.300;2022-07-21T03:04:11;6.50;;;4.47;;
3726;SDS011;1879;45.876;12.300;2022-07-21T03:06:38;5.13;;;4.70;;
3726;SDS011;1879;45.876;12.300;2022-07-21T03:09:05;7.20;;;5.03;;
3726;SDS011;1879;45.876;12.300;2022-07-21T03:11:33;6.23;;;5.27;;
3726;SDS011;1879;45.876;12.300;2022-07-21T03:14:00;5.97;;;5.43;;
3726;SDS011;1879;45.876;12.300;2022-07-21T03:16:27;6.37;;;5.20;;
3726;SDS011;1879;45.876;12.300;2022-07-21T03:18:54;6.87;;;5.30;;
3726;SDS011;1879;45.876;12.300;2022-07-21T03:21:23;5.13;;;4.57;;
3726;SDS011;1879;45.876;12.300;2022-07-21T03:23:50;6.10;;;5.53;;
3726;SDS011;1879;45.876;12.300;2022-07-21T03:26:17;6.23;;;5.10;;
3726;SDS011;1879;45.876;12.300;2022-07-21T03:28:44;6.47;;;5.87;;
3726;SDS011;1879;45.876;12.300;2022-07-21T03:31:11;6.20;;;5.13;;
3726;SDS011;1879;45.876;12.300;2022-07-21T03:33:38;9.03;;;5.27;;
3726;SDS011;1879;45.876;12.300;2022-07-21T03:36:05;6.53;;;5.77;;
3726;SDS011;1879;45.876;12.300;2022-07-21T03:38:34;5.30;;;4.80;;
3726;SDS011;1879;45.876;12.300;2022-07-21T03:41:02;6.23;;;5.53;;
3726;SDS011;1879;45.876;12.300;2022-07-21T03:43:29;5.83;;;5.17;;
3726;SDS011;1879;45.876;12.300;2022-07-21T03:45:56;10.10;;;6.07;;
3726;SDS011;1879;45.876;12.300;2022-07-21T03:48:23;9.43;;;5.50;;
3726;SDS011;1879;45.876;12.300;2022-07-21T03:50:50;5.57;;;4.80;;
3726;SDS011;1879;45.876;12.300;2022-07-21T03:53:17;5.30;;;4.77;;
3726;SDS011;1879;45.876;12.300;2022-07-21T03:55:45;10.70;;;5.33;;
3726;SDS011;1879;45.876;12.300;2022-07-21T03:58:12;7.37;;;5.30;;
3726;SDS011;1879;45.876;12.300;2022-07-21T04:00:40;6.33;;;5.03;;
3726;SDS011;1879;45.876;12.300;2022-07-21T04:03:09;7.30;;;5.57;;
3726;SDS011;1879;45.876;12.300;2022-07-21T04:05:38;6.63;;;4.83;;
3726;SDS011;1879;45.876;12.300;2022-07-21T04:08:06;9.47;;;5.63;;
3726;SDS011;1879;45.876;12.300;2022-07-21T04:10:35;7.80;;;5.93;;
3726;SDS011;1879;45.876;12.300;2022-07-21T04:13:06;8.33;;;5.53;;
3726;SDS011;1879;45.876;12.300;2022-07-21T04:15:34;6.90;;;5.50;;
3726;SDS011;1879;45.876;12.300;2022-07-21T04:18:02;5.80;;;5.20;;
3726;SDS011;1879;45.876;12.300;2022-07-21T04:20:29;7.60;;;5.73;;
3726;SDS011;1879;45.876;12.300;2022-07-21T04:22:56;5.53;;;4.77;;
3726;SDS011;1879;45.876;12.300;2022-07-21T04:25:23;7.63;;;5.50;;
3726;SDS011;1879;45.876;12.300;2022-07-21T04:27:51;6.90;;;5.90;;
3726;SDS011;1879;45.876;12.300;2022-07-21T04:30:21;7.67;;;5.70;;
3726;SDS011;1879;45.876;12.300;2022-07-21T04:32:49;6.90;;;5.10;;
3726;SDS011;1879;45.876;12.300;2022-07-21T04:35:17;7.13;;;5.40;;
3726;SDS011;1879;45.876;12.300;2022-07-21T04:37:44;6.77;;;5.77;;
3726;SDS011;1879;45.876;12.300;2022-07-21T04:40:12;8.30;;;6.57;;
3726;SDS011;1879;45.876;12.300;2022-07-21T04:42:40;6.77;;;6.03;;
3726;SDS011;1879;45.876;12.300;2022-07-21T04:45:08;6.90;;;5.43;;
3726;SDS011;1879;45.876;12.300;2022-07-21T04:47:46;7.80;;;6.47;;
3726;SDS011;1879;45.876;12.300;2022-07-21T04:50:14;7.03;;;6.27;;
3726;SDS011;1879;45.876;12.300;2022-07-21T04:52:42;7.00;;;6.30;;
3726;SDS011;1879;45.876;12.300;2022-07-21T04:55:10;6.40;;;5.80;;
3726;SDS011;1879;45.876;12.300;2022-07-21T04:57:38;6.70;;;6.10;;
3726;SDS011;1879;45.876;12.300;2022-07-21T05:00:07;7.80;;;6.87;;
3726;SDS011;1879;45.876;12.300;2022-07-21T05:02:36;6.97;;;6.30;;
3726;SDS011;1879;45.876;12.300;2022-07-21T05:05:05;8.10;;;6.67;;
3726;SDS011;1879;45.876;12.300;2022-07-21T05:07:33;9.77;;;6.17;;
3726;SDS011;1879;45.876;12.300;2022-07-21T05:10:03;6.87;;;6.17;;
3726;SDS011;1879;45.876;12.300;2022-07-21T05:12:31;6.93;;;6.23;;
3726;SDS011;1879;45.876;12.300;2022-07-21T05:14:58;10.53;;;6.80;;
3726;SDS011;1879;45.876;12.300;2022-07-21T05:17:25;7.67;;;6.43;;
3726;SDS011;1879;45.876;12.300;2022-07-21T05:19:52;6.30;;;5.73;;
3726;SDS011;1879;45.876;12.300;2022-07-21T05:22:20;8.43;;;6.20;;
3726;SDS011;1879;45.876;12.300;2022-07-21T05:24:47;6.93;;;6.20;;
3726;SDS011;1879;45.876;12.300;2022-07-21T05:27:14;6.87;;;6.10;;
3726;SDS011;1879;45.876;12.300;2022-07-21T05:29:41;6.43;;;5.83;;
3726;SDS011;1879;45.876;12.300;2022-07-21T05:32:09;6.80;;;6.20;;
3726;SDS011;1879;45.876;12.300;2022-07-21T05:34:36;6.70;;;6.10;;
3726;SDS011;1879;45.876;12.300;2022-07-21T05:37:03;7.10;;;6.03;;
3726;SDS011;1879;45.876;12.300;2022-07-21T05:39:32;7.23;;;6.00;;
3726;SDS011;1879;45.876;12.300;2022-07-21T05:41:59;6.90;;;6.30;;
3726;SDS011;1879;45.876;12.300;2022-07-21T05:44:26;8.93;;;5.90;;
3726;SDS011;1879;45.876;12.300;2022-07-21T05:46:53;12.40;;;6.40;;
3726;SDS011;1879;45.876;12.300;2022-07-21T05:49:20;7.70;;;6.90;;
3726;SDS011;1879;45.876;12.300;2022-07-21T05:51:47;7.73;;;6.93;;
3726;SDS011;1879;45.876;12.300;2022-07-21T05:54:14;7.23;;;6.50;;
3726;SDS011;1879;45.876;12.300;2022-07-21T05:56:42;7.20;;;6.50;;
3726;SDS011;1879;45.876;12.300;2022-07-21T05:59:09;7.23;;;6.50;;
3726;SDS011;1879;45.876;12.300;2022-07-21T06:01:36;8.03;;;7.23;;
3726;SDS011;1879;45.876;12.300;2022-07-21T06:04:03;7.63;;;6.30;;
3726;SDS011;1879;45.876;12.300;2022-07-21T06:06:30;7.80;;;7.00;;
3726;SDS011;1879;45.876;12.300;2022-07-21T06:09:00;8.73;;;7.47;;
3726;SDS011;1879;45.876;12.300;2022-07-21T06:11:27;8.30;;;7.50;;
3726;SDS011;1879;45.876;12.300;2022-07-21T06:13:56;9.90;;;6.70;;
3726;SDS011;1879;45.876;12.300;2022-07-21T06:16:23;7.57;;;6.10;;
3726;SDS011;1879;45.876;12.300;2022-07-21T06:18:50;10.40;;;7.03;;
3726;SDS011;1879;45.876;12.300;2022-07-21T06:21:17;8.07;;;7.30;;
3726;SDS011;1879;45.876;12.300;2022-07-21T06:23:44;7.83;;;7.07;;
3726;SDS011;1879;45.876;12.300;2022-07-21T06:26:11;10.83;;;7.50;;
3726;SDS011;1879;45.876;12.300;2022-07-21T06:28:38;7.43;;;6.83;;
3726;SDS011;1879;45.876;12.300;2022-07-21T06:31:08;8.13;;;6.90;;
3726;SDS011;1879;45.876;12.300;2022-07-21T06:33:35;10.13;;;7.73;;
3726;SDS011;1879;45.876;12.300;2022-07-21T06:36:05;8.77;;;7.77;;
3726;SDS011;1879;45.876;12.300;2022-07-21T06:38:33;7.97;;;6.80;;
3726;SDS011;1879;45.876;12.300;2022-07-21T06:41:00;6.67;;;5.97;;
3726;SDS011;1879;45.876;12.300;2022-07-21T06:43:29;7.47;;;6.67;;
3726;SDS011;1879;45.876;12.300;2022-07-21T06:45:56;8.70;;;7.30;;
3726;SDS011;1879;45.876;12.300;2022-07-21T06:48:25;7.67;;;6.77;;
3726;SDS011;1879;45.876;12.300;2022-07-21T06:50:52;7.87;;;6.57;;
3726;SDS011;1879;45.876;12.300;2022-07-21T06:53:20;5.60;;;5.10;;
3726;SDS011;1879;45.876;12.300;2022-07-21T06:55:47;6.53;;;5.90;;
3726;SDS011;1879;45.876;12.300;2022-07-21T06:58:18;7.87;;;7.17;;
3726;SDS011;1879;45.876;12.300;2022-07-21T07:00:47;7.40;;;6.70;;
3726;SDS011;1879;45.876;12.300;2022-07-21T07:03:14;8.67;;;6.60;;
3726;SDS011;1879;45.876;12.300;2022-07-21T07:05:44;8.13;;;6.80;;
3726;SDS011;1879;45.876;12.300;2022-07-21T07:08:11;6.67;;;6.07;;
3726;SDS011;1879;45.876;12.300;2022-07-21T07:10:39;8.03;;;6.77;;
3726;SDS011;1879;45.876;12.300;2022-07-21T07:13:07;7.33;;;6.73;;
3726;SDS011;1879;45.876;12.300;2022-07-21T07:15:34;7.60;;;6.90;;
3726;SDS011;1879;45.876;12.300;2022-07-21T07:18:01;6.50;;;6.00;;
3726;SDS011;1879;45.876;12.300;2022-07-21T07:20:28;9.73;;;7.23;;
3726;SDS011;1879;45.876;12.300;2022-07-21T07:22:57;10.30;;;6.90;;
3726;SDS011;1879;45.876;12.300;2022-07-21T07:25:24;6.67;;;5.90;;
3726;SDS011;1879;45.876;12.300;2022-07-21T07:27:51;6.50;;;5.90;;
3726;SDS011;1879;45.876;12.300;2022-07-21T07:30:19;7.03;;;6.33;;
3726;SDS011;1879;45.876;12.300;2022-07-21T07:32:46;7.80;;;5.43;;
3726;SDS011;1879;45.876;12.300;2022-07-21T07:35:13;6.93;;;6.30;;
3726;SDS011;1879;45.876;12.300;2022-07-21T07:37:41;7.70;;;5.93;;
3726;SDS011;1879;45.876;12.300;2022-07-21T07:40:12;7.47;;;6.87;;
3726;SDS011;1879;45.876;12.300;2022-07-21T07:42:41;7.50;;;6.30;;
3726;SDS011;1879;45.876;12.300;2022-07-21T07:45:09;8.10;;;6.00;;
3726;SDS011;1879;45.876;12.300;2022-07-21T07:47:37;6.73;;;5.97;;
3726;SDS011;1879;45.876;12.300;2022-07-21T07:50:05;5.97;;;5.47;;
3726;SDS011;1879;45.876;12.300;2022-07-21T07:52:33;5.40;;;4.80;;
3726;SDS011;1879;45.876;12.300;2022-07-21T07:55:01;6.63;;;4.87;;
3726;SDS011;1879;45.876;12.300;2022-07-21T07:57:33;5.77;;;5.17;;
3726;SDS011;1879;45.876;12.300;2022-07-21T08:00:00;8.30;;;5.73;;
3726;SDS011;1879;45.876;12.300;2022-07-21T08:02:29;9.83;;;5.70;;
3726;SDS011;1879;45.876;12.300;2022-07-21T08:04:56;6.70;;;6.10;;
3726;SDS011;1879;45.876;12.300;2022-07-21T08:07:24;7.60;;;5.93;;
3726;SDS011;1879;45.876;12.300;2022-07-21T08:09:51;7.67;;;5.20;;
3726;SDS011;1879;45.876;12.300;2022-07-21T08:12:19;8.73;;;5.10;;
3726;SDS011;1879;45.876;12.300;2022-07-21T08:14:48;6.53;;;4.67;;
3726;SDS011;1879;45.876;12.300;2022-07-21T08:17:15;6.33;;;5.70;;
3726;SDS011;1879;45.876;12.300;2022-07-21T08:19:42;12.23;;;5.53;;
3726;SDS011;1879;45.876;12.300;2022-07-21T08:22:09;7.63;;;5.50;;
3726;SDS011;1879;45.876;12.300;2022-07-21T08:24:36;7.73;;;5.10;;
3726;SDS011;1879;45.876;12.300;2022-07-21T08:27:03;11.60;;;6.30;;
3726;SDS011;1879;45.876;12.300;2022-07-21T08:29:31;7.47;;;5.33;;
3726;SDS011;1879;45.876;12.300;2022-07-21T08:31:59;5.37;;;4.63;;
3726;SDS011;1879;45.876;12.300;2022-07-21T08:34:26;6.07;;;4.13;;
3726;SDS011;1879;45.876;12.300;2022-07-21T08:36:54;7.37;;;4.33;;
3726;SDS011;1879;45.876;12.300;2022-07-21T08:39:21;4.40;;;3.20;;
3726;SDS011;1879;45.876;12.300;2022-07-21T08:41:48;3.60;;;3.30;;
3726;SDS011;1879;45.876;12.300;2022-07-21T08:44:17;4.27;;;3.50;;
3726;SDS011;1879;45.876;12.300;2022-07-21T08:46:47;9.20;;;3.50;;
3726;SDS011;1879;45.876;12.300;2022-07-21T08:49:17;4.77;;;4.37;;
3726;SDS011;1879;45.876;12.300;2022-07-21T08:51:47;6.60;;;4.30;;
3726;SDS011;1879;45.876;12.300;2022-07-21T08:54:14;8.40;;;4.60;;
3726;SDS011;1879;45.876;12.300;2022-07-21T08:56:41;5.57;;;4.30;;
3726;SDS011;1879;45.876;12.300;2022-07-21T08:59:08;4.93;;;4.43;;
3726;SDS011;1879;45.876;12.300;2022-07-21T09:01:35;4.30;;;3.97;;
3726;SDS011;1879;45.876;12.300;2022-07-21T09:04:24;4.50;;;3.90;;
3726;SDS011;1879;45.876;12.300;2022-07-21T09:06:53;5.10;;;3.93;;
3726;SDS011;1879;45.876;12.300;2022-07-21T09:09:22;6.10;;;4.07;;
3726;SDS011;1879;45.876;12.300;2022-07-21T09:11:51;8.40;;;4.10;;
3726;SDS011;1879;45.876;12.300;2022-07-21T09:14:19;6.27;;;4.20;;
3726;SDS011;1879;45.876;12.300;2022-07-21T09:16:48;6.73;;;3.90;;
3726;SDS011;1879;45.876;12.300;2022-07-21T09:19:18;7.83;;;4.00;;
3726;SDS011;1879;45.876;12.300;2022-07-21T09:21:48;5.40;;;3.70;;
3726;SDS011;1879;45.876;12.300;2022-07-21T09:24:17;5.77;;;4.03;;
3726;SDS011;1879;45.876;12.300;2022-07-21T09:26:58;4.27;;;3.97;;
3726;SDS011;1879;45.876;12.300;2022-07-21T09:29:27;3.90;;;3.60;;
3726;SDS011;1879;45.876;12.300;2022-07-21T09:32:11;5.10;;;3.60;;
3726;SDS011;1879;45.876;12.300;2022-07-21T09:34:50;3.80;;;3.50;;
3726;SDS011;1879;45.876;12.300;2022-07-21T09:37:19;4.20;;;3.90;;
3726;SDS011;1879;45.876;12.300;2022-07-21T09:39:49;4.87;;;4.33;;
3726;SDS011;1879;45.876;12.300;2022-07-21T09:42:18;4.23;;;3.83;;
3726;SDS011;1879;45.876;12.300;2022-07-21T09:44:48;5.00;;;4.07;;
3726;SDS011;1879;45.876;12.300;2022-07-21T09:47:18;5.10;;;4.27;;
3726;SDS011;1879;45.876;12.300;2022-07-21T09:49:48;5.07;;;3.50;;
3726;SDS011;1879;45.876;12.300;2022-07-21T09:52:21;4.77;;;3.37;;
3726;SDS011;1879;45.876;12.300;2022-07-21T09:54:50;4.33;;;3.90;;
3726;SDS011;1879;45.876;12.300;2022-07-21T09:57:18;4.67;;;4.00;;
3726;SDS011;1879;45.876;12.300;2022-07-21T09:59:47;9.50;;;4.53;;
3726;SDS011;1879;45.876;12.300;2022-07-21T10:02:17;6.83;;;5.17;;
3726;SDS011;1879;45.876;12.300;2022-07-21T10:04:47;8.70;;;4.40;;
3726;SDS011;1879;45.876;12.300;2022-07-21T10:07:20;5.83;;;4.13;;
3726;SDS011;1879;45.876;12.300;2022-07-21T10:09:48;6.63;;;4.50;;
3726;SDS011;1879;45.876;12.300;2022-07-21T10:12:16;5.10;;;4.70;;
3726;SDS011;1879;45.876;12.300;2022-07-21T10:14:43;4.27;;;3.87;;
3726;SDS011;1879;45.876;12.300;2022-07-21T10:17:12;4.80;;;4.40;;
3726;SDS011;1879;45.876;12.300;2022-07-21T10:19:41;5.07;;;4.23;;
3726;SDS011;1879;45.876;12.300;2022-07-21T10:22:30;5.40;;;3.90;;
3726;SDS011;1879;45.876;12.300;2022-07-21T10:25:06;5.53;;;4.80;;
3726;SDS011;1879;45.876;12.300;2022-07-21T10:27:34;5.83;;;4.30;;
3726;SDS011;1879;45.876;12.300;2022-07-21T10:30:01;6.47;;;4.47;;
3726;SDS011;1879;45.876;12.300;2022-07-21T10:32:30;4.90;;;4.40;;
3726;SDS011;1879;45.876;12.300;2022-07-21T10:34:59;4.53;;;4.13;;
3726;SDS011;1879;45.876;12.300;2022-07-21T10:37:46;5.17;;;4.43;;
3726;SDS011;1879;45.876;12.300;2022-07-21T10:49:00;6.23;;;4.20;;
3726;SDS011;1879;45.876;12.300;2022-07-21T10:51:27;5.83;;;4.10;;
3726;SDS011;1879;45.876;12.300;2022-07-21T10:54:16;4.00;;;3.33;;
3726;SDS011;1879;45.876;12.300;2022-07-21T11:02:53;5.87;;;3.70;;
3726;SDS011;1879;45.876;12.300;2022-07-21T11:05:22;9.77;;;4.23;;
3726;SDS011;1879;45.876;12.300;2022-07-21T11:10:43;4.77;;;3.83;;
3726;SDS011;1879;45.876;12.300;2022-07-21T11:13:11;6.10;;;4.10;;
3726;SDS011;1879;45.876;12.300;2022-07-21T11:15:43;5.60;;;4.30;;
3726;SDS011;1879;45.876;12.300;2022-07-21T11:18:11;4.37;;;3.97;;
3726;SDS011;1879;45.876;12.300;2022-07-21T11:20:43;7.53;;;4.37;;
3726;SDS011;1879;45.876;12.300;2022-07-21T11:23:34;5.03;;;4.50;;
3726;SDS011;1879;45.876;12.300;2022-07-21T11:26:03;7.87;;;4.30;;
3726;SDS011;1879;45.876;12.300;2022-07-21T11:28:30;7.63;;;4.00;;
3726;SDS011;1879;45.876;12.300;2022-07-21T11:31:07;5.67;;;3.93;;
3726;SDS011;1879;45.876;12.300;2022-07-21T11:33:37;5.07;;;4.17;;
3726;SDS011;1879;45.876;12.300;2022-07-21T11:36:05;6.13;;;5.20;;
3726;SDS011;1879;45.876;12.300;2022-07-21T11:38:32;4.97;;;4.10;;
3726;SDS011;1879;45.876;12.300;2022-07-21T11:41:14;6.10;;;5.40;;
3726;SDS011;1879;45.876;12.300;2022-07-21T11:43:42;5.27;;;4.87;;
3726;SDS011;1879;45.876;12.300;2022-07-21T11:46:11;7.80;;;6.13;;
3726;SDS011;1879;45.876;12.300;2022-07-21T11:48:39;6.20;;;5.70;;
3726;SDS011;1879;45.876;12.300;2022-07-21T11:51:06;7.63;;;6.37;;
3726;SDS011;1879;45.876;12.300;2022-07-21T11:53:33;6.73;;;6.00;;
3726;SDS011;1879;45.876;12.300;2022-07-21T11:56:01;6.40;;;5.80;;
3726;SDS011;1879;45.876;12.300;2022-07-21T11:58:40;5.67;;;5.17;;
3726;SDS011;1879;45.876;12.300;2022-07-21T12:01:07;6.50;;;6.00;;
3726;SDS011;1879;45.876;12.300;2022-07-21T12:03:45;6.80;;;6.20;;
3726;SDS011;1879;45.876;12.300;2022-07-21T12:06:14;7.27;;;6.67;;
3726;SDS011;1879;45.876;12.300;2022-07-21T12:08:41;7.03;;;6.53;;
3726;SDS011;1879;45.876;12.300;2022-07-21T12:11:09;7.70;;;7.07;;
3726;SDS011;1879;45.876;12.300;2022-07-21T12:13:55;7.97;;;6.87;;
3726;SDS011;1879;45.876;12.300;2022-07-21T12:16:23;6.77;;;6.30;;
3726;SDS011;1879;45.876;12.300;2022-07-21T12:21:45;8.50;;;5.80;;
3726;SDS011;1879;45.876;12.300;2022-07-21T12:24:16;6.63;;;4.80;;
3726;SDS011;1879;45.876;12.300;2022-07-21T12:26:43;6.23;;;5.73;;
3726;SDS011;1879;45.876;12.300;2022-07-21T12:29:25;7.43;;;5.23;;
3726;SDS011;1879;45.876;12.300;2022-07-21T12:31:53;6.23;;;5.73;;
3726;SDS011;1879;45.876;12.300;2022-07-21T12:34:20;7.43;;;6.83;;
3726;SDS011;1879;45.876;12.300;2022-07-21T12:36:49;6.97;;;6.47;;
3726;SDS011;1879;45.876;12.300;2022-07-21T12:39:17;6.80;;;6.20;;
3726;SDS011;1879;45.876;12.300;2022-07-21T12:42:04;6.10;;;5.53;;
3726;SDS011;1879;45.876;12.300;2022-07-21T12:44:34;6.43;;;5.80;;
3726;SDS011;1879;45.876;12.300;2022-07-21T12:47:14;6.97;;;5.90;;
3726;SDS011;1879;45.876;12.300;2022-07-21T12:49:56;9.07;;;5.93;;
3726;SDS011;1879;45.876;12.300;2022-07-21T12:52:24;6.90;;;6.20;;
3726;SDS011;1879;45.876;12.300;2022-07-21T12:54:53;6.37;;;5.87;;
3726;SDS011;1879;45.876;12.300;2022-07-21T12:57:21;6.63;;;5.83;;
3726;SDS011;1879;45.876;12.300;2022-07-21T12:59:49;6.43;;;5.83;;
3726;SDS011;1879;45.876;12.300;2022-07-21T13:02:16;6.63;;;6.13;;
3726;SDS011;1879;45.876;12.300;2022-07-21T13:04:43;5.43;;;4.93;;
3726;SDS011;1879;45.876;12.300;2022-07-21T13:07:10;5.77;;;5.03;;
3726;SDS011;1879;45.876;12.300;2022-07-21T13:09:41;5.30;;;4.90;;
3726;SDS011;1879;45.876;12.300;2022-07-21T13:12:10;6.50;;;5.87;;
3726;SDS011;1879;45.876;12.300;2022-07-21T13:14:37;7.17;;;6.47;;
3726;SDS011;1879;45.876;12.300;2022-07-21T13:17:06;7.40;;;6.40;;
3726;SDS011;1879;45.876;12.300;2022-07-21T13:19:33;7.47;;;6.87;;
3726;SDS011;1879;45.876;12.300;2022-07-21T13:22:01;7.20;;;6.60;;
3726;SDS011;1879;45.876;12.300;2022-07-21T13:24:30;7.77;;;7.17;;
3726;SDS011;1879;45.876;12.300;2022-07-21T13:26:57;7.07;;;6.03;;
3726;SDS011;1879;45.876;12.300;2022-07-21T13:29:25;8.03;;;6.67;;
3726;SDS011;1879;45.876;12.300;2022-07-21T13:31:52;5.50;;;5.00;;
3726;SDS011;1879;45.876;12.300;2022-07-21T13:34:20;6.60;;;6.00;;
3726;SDS011;1879;45.876;12.300;2022-07-21T13:36:47;6.20;;;5.60;;
3726;SDS011;1879;45.876;12.300;2022-07-21T13:39:14;6.97;;;5.50;;
3726;SDS011;1879;45.876;12.300;2022-07-21T13:41:41;6.47;;;5.87;;
3726;SDS011;1879;45.876;12.300;2022-07-21T13:44:08;6.30;;;5.80;;
3726;SDS011;1879;45.876;12.300;2022-07-21T13:46:35;5.63;;;5.20;;
3726;SDS011;1879;45.876;12.300;2022-07-21T13:49:02;8.37;;;5.90;;
3726;SDS011;1879;45.876;12.300;2022-07-21T13:51:31;6.67;;;6.07;;
3726;SDS011;1879;45.876;12.300;2022-07-21T13:53:58;6.50;;;5.83;;
3726;SDS011;1879;45.876;12.300;2022-07-21T13:56:25;6.80;;;6.10;;
3726;SDS011;1879;45.876;12.300;2022-07-21T13:58:52;6.60;;;6.10;;
3726;SDS011;1879;45.876;12.300;2022-07-21T14:01:19;7.87;;;5.90;;
3726;SDS011;1879;45.876;12.300;2022-07-21T14:03:47;6.70;;;6.10;;
3726;SDS011;1879;45.876;12.300;2022-07-21T14:06:17;6.47;;;5.97;;
3726;SDS011;1879;45.876;12.300;2022-07-21T14:08:45;6.07;;;5.67;;
3726;SDS011;1879;45.876;12.300;2022-07-21T14:11:12;6.20;;;5.70;;
3726;SDS011;1879;45.876;12.300;2022-07-21T14:13:40;6.63;;;5.70;;
3726;SDS011;1879;45.876;12.300;2022-07-21T14:16:08;6.80;;;6.30;;
3726;SDS011;1879;45.876;12.300;2022-07-21T14:18:36;5.67;;;5.27;;
3726;SDS011;1879;45.876;12.300;2022-07-21T14:21:03;8.73;;;6.00;;
3726;SDS011;1879;45.876;12.300;2022-07-21T14:23:30;6.67;;;6.03;;
3726;SDS011;1879;45.876;12.300;2022-07-21T14:26:01;6.27;;;5.87;;
3726;SDS011;1879;45.876;12.300;2022-07-21T14:28:28;6.30;;;5.80;;
3726;SDS011;1879;45.876;12.300;2022-07-21T14:30:55;5.47;;;4.93;;
3726;SDS011;1879;45.876;12.300;2022-07-21T14:33:23;6.50;;;5.87;;
3726;SDS011;1879;45.876;12.300;2022-07-21T14:35:50;8.50;;;5.43;;
3726;SDS011;1879;45.876;12.300;2022-07-21T14:38:18;6.00;;;5.40;;
3726;SDS011;1879;45.876;12.300;2022-07-21T14:40:46;6.17;;;5.67;;
3726;SDS011;1879;45.876;12.300;2022-07-21T14:43:14;5.90;;;5.50;;
3726;SDS011;1879;45.876;12.300;2022-07-21T14:45:41;5.50;;;5.10;;
3726;SDS011;1879;45.876;12.300;2022-07-21T15:03:07;7.47;;;6.73;;
3726;SDS011;1879;45.876;12.300;2022-07-21T15:05:35;7.30;;;6.47;;
3726;SDS011;1879;45.876;12.300;2022-07-21T15:08:02;7.80;;;6.80;;
3726;SDS011;1879;45.876;12.300;2022-07-21T15:10:29;7.50;;;6.90;;
3726;SDS011;1879;45.876;12.300;2022-07-21T15:12:56;6.83;;;6.27;;
3726;SDS011;1879;45.876;12.300;2022-07-21T15:15:23;7.23;;;6.57;;
3726;SDS011;1879;45.876;12.300;2022-07-21T15:17:50;6.67;;;6.07;;
3726;SDS011;1879;45.876;12.300;2022-07-21T15:20:18;6.50;;;5.83;;
3726;SDS011;1879;45.876;12.300;2022-07-21T15:22:45;7.37;;;6.53;;
3726;SDS011;1879;45.876;12.300;2022-07-21T15:25:12;6.77;;;6.03;;
3726;SDS011;1879;45.876;12.300;2022-07-21T15:27:40;6.70;;;6.10;;
3726;SDS011;1879;45.876;12.300;2022-07-21T15:30:09;7.07;;;6.43;;
3726;SDS011;1879;45.876;12.300;2022-07-21T15:32:37;6.37;;;5.83;;
3726;SDS011;1879;45.876;12.300;2022-07-21T15:35:05;6.20;;;5.60;;
3726;SDS011;1879;45.876;12.300;2022-07-21T15:37:34;6.50;;;5.87;;
3726;SDS011;1879;45.876;12.300;2022-07-21T15:40:02;6.63;;;6.10;;
3726;SDS011;1879;45.876;12.300;2022-07-21T15:42:30;6.30;;;5.70;;
3726;SDS011;1879;45.876;12.300;2022-07-21T15:44:59;6.20;;;5.70;;